Time;durP1;ratioP1;P1;durP2;ratioP2;P2;SDS_P1;SDS_P2;PMS_P1;PMS_P2;Temp;Humidity;BMP_temperature;BMP_pressure;BME280_temperature;BME280_humidity;BME280_pressure;Samples;Min_cycle;Max_cycle;Signal;HPM_P1;HPM_P2
2022/11/26 00:02:21;;;;;;;13.70;5.60;;;;;;;10.50;64.40;102538.63;5147164;27;20051;-63
2022/11/26 00:04:50;;;;;;;16.70;6.00;;;;;;;10.49;64.55;102536.94;5149827;27;20046;-63
2022/11/26 00:07:21;;;;;;;14.20;4.93;;;;;;;10.47;64.50;102544.34;5155998;27;20054;-63
2022/11/26 00:09:49;;;;;;;12.82;5.78;;;;;;;10.45;64.48;102546.38;5140529;27;20058;-63
2022/11/26 00:12:18;;;;;;;11.00;4.85;;;;;;;10.43;64.65;102551.94;5146859;27;20053;-63
2022/11/26 00:14:46;;;;;;;15.20;5.97;;;;;;;10.41;64.87;102548.59;5136991;27;20043;-64
2022/11/26 00:17:15;;;;;;;11.65;5.18;;;;;;;10.41;64.65;102543.22;5134874;27;20088;-64
2022/11/26 00:19:45;;;;;;;12.32;5.50;;;;;;;10.40;64.66;102546.91;5139776;27;20043;-63
2022/11/26 00:22:25;;;;;;;12.30;5.47;;;;;;;10.39;64.58;102561.41;5142420;27;20039;-63
2022/11/26 00:24:54;;;;;;;15.13;5.93;;;;;;;10.38;64.57;102556.19;5139039;27;20043;-64
2022/11/26 00:27:24;;;;;;;13.18;5.65;;;;;;;10.37;64.53;102558.06;5145900;27;20496;-63
2022/11/26 00:29:52;;;;;;;12.68;6.20;;;;;;;10.36;64.50;102563.59;5145951;27;20066;-63
2022/11/26 00:32:21;;;;;;;13.93;5.03;;;;;;;10.35;64.47;102561.94;5144222;27;20067;-63
2022/11/26 00:34:51;;;;;;;11.60;5.32;;;;;;;10.32;64.27;102557.75;5144154;27;20050;-63
2022/11/26 00:37:22;;;;;;;11.45;4.85;;;;;;;10.32;64.62;102560.44;5136222;27;20122;-63
2022/11/26 00:39:51;;;;;;;12.25;5.03;;;;;;;10.30;64.58;102565.16;5144111;27;20047;-63
2022/11/26 00:42:19;;;;;;;14.25;5.93;;;;;;;10.27;64.12;102562.00;5141076;27;20062;-63
2022/11/26 00:44:47;;;;;;;17.92;5.38;;;;;;;10.27;64.53;102562.81;5145004;27;20039;-63
2022/11/26 00:47:14;;;;;;;16.60;6.25;;;;;;;10.26;64.31;102566.53;5146546;27;20051;-63
2022/11/26 00:49:42;;;;;;;11.88;5.53;;;;;;;10.24;64.61;102565.88;5152116;27;20043;-63
2022/11/26 00:52:24;;;;;;;14.63;6.15;;;;;;;10.22;64.42;102565.22;5125450;27;20107;-64
2022/11/26 00:54:52;;;;;;;14.38;6.13;;;;;;;10.22;64.22;102569.75;5133978;27;20039;-63
2022/11/26 00:57:20;;;;;;;14.80;5.90;;;;;;;10.20;64.65;102569.91;5133740;27;20114;-63
2022/11/26 00:59:48;;;;;;;9.32;4.97;;;;;;;10.21;64.63;102568.06;5144352;27;20293;-63
2022/11/26 01:02:15;;;;;;;12.48;5.32;;;;;;;10.21;64.51;102576.13;5132471;27;20047;-64
2022/11/26 01:04:43;;;;;;;16.00;6.53;;;;;;;10.20;64.48;102575.28;5127889;27;20038;-63
2022/11/26 01:07:11;;;;;;;9.40;5.40;;;;;;;10.18;64.26;102574.59;5145888;27;20539;-63
2022/11/26 01:09:42;;;;;;;12.98;5.30;;;;;;;10.19;64.68;102573.59;5137159;27;20073;-63
2022/11/26 01:12:13;;;;;;;12.88;5.10;;;;;;;10.18;64.48;102576.47;5125136;28;20055;-63
2022/11/26 01:14:41;;;;;;;13.85;4.90;;;;;;;10.18;64.79;102577.28;5124685;27;20044;-63
2022/11/26 01:17:11;;;;;;;12.25;5.35;;;;;;;10.18;64.45;102571.09;5144862;27;20223;-63
2022/11/26 01:19:39;;;;;;;13.70;5.28;;;;;;;10.17;64.74;102572.94;5130577;27;20047;-63
2022/11/26 01:22:18;;;;;;;14.18;5.60;;;;;;;10.16;64.88;102570.41;5134946;27;20047;-64
2022/11/26 01:24:48;;;;;;;13.85;5.50;;;;;;;10.13;64.58;102568.94;5128883;27;20047;-64
2022/11/26 01:27:17;;;;;;;13.00;4.63;;;;;;;10.15;64.67;102563.38;5143684;27;20043;-63
2022/11/26 01:29:45;;;;;;;14.80;5.50;;;;;;;10.13;64.38;102568.94;5144157;27;20051;-63
2022/11/26 01:32:13;;;;;;;11.60;6.30;;;;;;;10.13;64.72;102568.09;5125906;27;20560;-64
2022/11/26 01:34:40;;;;;;;9.88;4.90;;;;;;;10.11;64.44;102558.34;5124489;28;20105;-63
2022/11/26 01:37:13;;;;;;;11.63;5.50;;;;;;;10.10;64.74;102562.06;5154926;27;20050;-63
2022/11/26 01:39:41;;;;;;;14.90;5.25;;;;;;;10.07;64.69;102564.25;5134253;27;20051;-63
2022/11/26 01:42:25;;;;;;;17.85;5.95;;;;;;;10.07;64.95;102567.78;5141390;27;20515;-63
2022/11/26 01:44:53;;;;;;;17.38;6.28;;;;;;;10.05;64.49;102564.44;5137225;27;20046;-63
2022/11/26 01:47:22;;;;;;;14.73;6.05;;;;;;;10.04;64.76;102568.13;5142902;27;20039;-63
2022/11/26 01:50:28;;;;;;;15.02;5.45;;;;;;;10.03;64.80;102571.84;5124911;28;20043;-64
2022/11/26 01:52:58;;;;;;;12.40;5.30;;;;;;;10.00;64.82;102580.25;5138978;27;20130;-63
2022/11/26 01:55:31;;;;;;;11.35;5.55;;;;;;;10.00;64.31;102593.66;5145930;27;20045;-63
2022/11/26 01:58:01;;;;;;;11.38;5.05;;;;;;;9.99;64.70;102589.31;5144519;27;20517;-63
2022/11/26 02:00:29;;;;;;;14.10;5.50;;;;;;;9.98;64.52;102592.16;5143912;27;20051;-64
2022/11/26 02:02:57;;;;;;;13.38;4.80;;;;;;;9.97;64.72;102590.50;5143672;27;20047;-63
2022/11/26 02:05:30;;;;;;;15.45;5.55;;;;;;;9.94;64.40;102586.31;5130392;27;20043;-62
2022/11/26 02:07:59;;;;;;;13.38;5.25;;;;;;;9.94;64.39;102594.38;5137640;27;20086;-63
2022/11/26 02:10:27;;;;;;;15.52;5.20;;;;;;;9.92;64.33;102595.56;5129302;27;20085;-62
2022/11/26 02:12:55;;;;;;;11.90;5.35;;;;;;;9.91;64.79;102596.56;5142704;27;20051;-63
2022/11/26 02:15:32;;;;;;;11.57;5.07;;;;;;;9.91;64.60;102593.88;5133780;27;20040;-63
2022/11/26 02:18:06;;;;;;;14.48;7.30;;;;;;;9.90;64.60;102603.78;5123760;28;20044;-63
2022/11/26 02:20:48;;;;;;;15.15;5.95;;;;;;;9.89;64.75;102609.34;5126799;27;20054;-62
2022/11/26 02:23:52;;;;;;;11.65;5.78;;;;;;;9.87;64.52;102604.13;5139574;27;20047;-62
2022/11/26 02:26:52;;;;;;;17.30;5.65;;;;;;;9.86;64.67;102607.00;5134978;27;20075;-62
2022/11/26 02:29:28;;;;;;;14.18;5.63;;;;;;;9.85;64.25;102608.84;5142849;27;20047;-63
2022/11/26 02:32:04;;;;;;;11.82;4.80;;;;;;;9.83;64.22;102602.81;5141807;27;20055;-63
2022/11/26 02:34:38;;;;;;;12.10;4.97;;;;;;;9.83;64.13;102612.72;5140796;27;20049;-63
2022/11/26 02:37:12;;;;;;;9.18;4.85;;;;;;;9.83;64.58;102618.09;5125472;27;20039;-62
2022/11/26 02:39:40;;;;;;;14.25;5.20;;;;;;;9.82;64.10;102605.66;5129427;28;20047;-63
2022/11/26 02:42:24;;;;;;;16.45;5.68;;;;;;;9.81;64.57;102604.84;5139075;27;20051;-63
2022/11/26 02:44:52;;;;;;;14.73;6.00;;;;;;;9.79;64.25;102601.47;5134140;28;20365;-63
2022/11/26 02:47:24;;;;;;;12.43;4.90;;;;;;;9.78;64.47;102602.50;5132498;28;20130;-63
2022/11/26 02:49:53;;;;;;;14.20;5.32;;;;;;;9.78;64.07;102602.50;5135791;28;20055;-63
2022/11/26 02:52:22;;;;;;;13.38;5.18;;;;;;;9.74;64.16;102604.69;5134004;28;20122;-64
2022/11/26 02:54:52;;;;;;;17.67;5.03;;;;;;;9.75;64.05;102614.41;5141570;28;20086;-62
2022/11/26 02:57:24;;;;;;;15.98;5.32;;;;;;;9.72;64.08;102616.63;5143783;28;20065;-62
2022/11/26 02:59:52;;;;;;;15.60;5.05;;;;;;;9.73;64.13;102621.81;5138551;28;20051;-63
2022/11/26 03:02:28;;;;;;;12.48;4.97;;;;;;;9.73;64.00;102620.97;5136909;28;20053;-63
2022/11/26 03:05:00;;;;;;;15.88;5.47;;;;;;;9.72;64.51;102621.97;5125104;28;20050;-62
2022/11/26 03:07:30;;;;;;;18.08;5.63;;;;;;;9.73;64.35;102629.88;5141697;28;20130;-62
2022/11/26 03:10:01;;;;;;;12.65;5.63;;;;;;;9.70;64.40;102632.91;5141064;28;20051;-63
2022/11/26 03:12:29;;;;;;;13.35;5.60;;;;;;;9.70;64.27;102640.94;5143163;28;20054;-63
2022/11/26 03:14:57;;;;;;;17.73;5.32;;;;;;;9.70;64.57;102638.25;5131016;27;20043;-63
2022/11/26 03:17:26;;;;;;;18.02;5.95;;;;;;;9.68;64.15;102634.91;5142642;28;20492;-62
2022/11/26 03:19:54;;;;;;;16.15;6.10;;;;;;;9.67;64.12;102645.81;5143715;28;20051;-62
2022/11/26 03:22:22;;;;;;;15.40;5.80;;;;;;;9.66;64.16;102653.03;5140206;28;20077;-63
2022/11/26 03:24:49;;;;;;;17.17;5.57;;;;;;;9.67;64.14;102652.03;5140728;28;20058;-62
2022/11/26 03:27:17;;;;;;;14.13;4.63;;;;;;;9.66;64.51;102649.50;5142020;28;20047;-62
2022/11/26 03:29:45;;;;;;;15.95;6.13;;;;;;;9.66;64.10;102646.84;5143305;28;20113;-62
2022/11/26 03:32:12;;;;;;;17.92;6.03;;;;;;;9.65;64.38;102650.53;5143316;28;20051;-62
2022/11/26 03:34:42;;;;;;;14.95;5.82;;;;;;;9.64;64.07;102654.22;5124769;28;20052;-62
2022/11/26 03:37:10;;;;;;;18.38;6.35;;;;;;;9.63;64.74;102656.06;5132527;28;20047;-63
2022/11/26 03:39:37;;;;;;;20.00;6.35;;;;;;;9.61;64.53;102657.25;5153879;27;20071;-63
2022/11/26 03:42:05;;;;;;;20.77;7.32;;;;;;;9.59;64.60;102653.91;5143919;27;20053;-62
2022/11/26 03:44:33;;;;;;;21.10;6.65;;;;;;;9.59;64.41;102649.38;5138292;27;20063;-63
2022/11/26 03:47:01;;;;;;;18.15;6.78;;;;;;;9.59;64.51;102646.69;5135033;27;20066;-63
2022/11/26 03:49:28;;;;;;;18.48;5.82;;;;;;;9.57;64.24;102646.00;5145168;27;20057;-63
2022/11/26 03:51:57;;;;;;;16.85;6.15;;;;;;;9.56;64.18;102648.88;5126913;27;20569;-63
2022/11/26 03:54:25;;;;;;;16.23;6.40;;;;;;;9.56;64.11;102655.06;5131764;27;20059;-63
2022/11/26 03:56:53;;;;;;;22.73;7.45;;;;;;;9.55;64.05;102664.13;5140515;27;20047;-62
2022/11/26 03:59:20;;;;;;;21.02;5.95;;;;;;;9.55;64.21;102660.59;5146880;27;20491;-63
2022/11/26 04:01:48;;;;;;;23.00;7.13;;;;;;;9.54;64.41;102651.72;5135757;27;20043;-63
2022/11/26 04:04:16;;;;;;;17.15;6.60;;;;;;;9.54;64.39;102656.25;5147324;27;20057;-63
2022/11/26 04:06:44;;;;;;;17.50;5.72;;;;;;;9.52;63.81;102669.84;5142800;27;20488;-64
2022/11/26 04:09:13;;;;;;;25.30;7.30;;;;;;;9.51;64.00;102661.97;5146817;27;20050;-63
2022/11/26 04:11:40;;;;;;;17.08;5.82;;;;;;;9.48;63.95;102678.41;5137994;27;20074;-64
2022/11/26 04:14:08;;;;;;;19.63;6.43;;;;;;;9.46;64.18;102682.09;5145406;27;20050;-64
2022/11/26 04:16:36;;;;;;;20.42;5.97;;;;;;;9.45;64.21;102683.09;5142514;27;20127;-63
2022/11/26 04:19:04;;;;;;;24.00;7.57;;;;;;;9.43;63.67;102685.13;5127701;27;20103;-63
2022/11/26 04:21:31;;;;;;;18.85;7.03;;;;;;;9.43;64.23;102689.66;5129695;27;20046;-63
2022/11/26 04:23:59;;;;;;;23.17;6.90;;;;;;;9.44;63.83;102694.00;5145567;27;20089;-63
2022/11/26 04:26:28;;;;;;;25.15;7.97;;;;;;;9.34;63.78;102686.13;5144224;27;20039;-63
2022/11/26 04:28:56;;;;;;;20.45;6.75;;;;;;;9.41;64.04;102694.34;5145283;27;20048;-64
2022/11/26 04:31:24;;;;;;;20.60;7.07;;;;;;;9.40;63.54;102693.50;5145981;27;20043;-64
2022/11/26 04:33:51;;;;;;;24.50;8.93;;;;;;;9.39;63.52;102689.16;5143880;27;20095;-63
2022/11/26 04:36:19;;;;;;;17.60;6.97;;;;;;;9.38;63.67;102694.69;5144036;27;20051;-63
2022/11/26 04:38:47;;;;;;;26.73;7.30;;;;;;;9.37;64.01;102684.97;5146234;27;20051;-62
2022/11/26 04:41:15;;;;;;;22.88;8.07;;;;;;;9.35;64.15;102684.28;5145433;27;20054;-62
2022/11/26 04:43:44;;;;;;;24.08;7.13;;;;;;;9.33;63.53;102678.25;5137037;27;20069;-63
2022/11/26 04:46:11;;;;;;;21.27;7.60;;;;;;;9.33;63.53;102691.66;5146118;27;20039;-63
2022/11/26 04:48:39;;;;;;;23.27;7.40;;;;;;;9.34;64.22;102688.81;5145846;27;20058;-63
2022/11/26 04:51:07;;;;;;;22.33;7.38;;;;;;;9.32;63.90;102695.34;5143787;27;20482;-63
2022/11/26 04:53:35;;;;;;;27.25;7.95;;;;;;;9.30;63.40;102694.69;5143680;27;20047;-63
2022/11/26 04:56:03;;;;;;;22.15;7.93;;;;;;;9.31;64.15;102699.03;5138077;27;20667;-63
2022/11/26 04:58:30;;;;;;;22.65;7.93;;;;;;;9.28;63.81;102702.91;5144985;27;20057;-63
2022/11/26 05:01:00;;;;;;;19.90;7.80;;;;;;;9.24;63.82;102696.19;5145552;27;20057;-63
2022/11/26 05:03:28;;;;;;;22.17;8.48;;;;;;;9.25;64.28;102700.56;5143501;27;20126;-63
2022/11/26 05:05:56;;;;;;;20.23;7.55;;;;;;;9.25;63.56;102705.09;5138267;27;20114;-63
2022/11/26 05:08:24;;;;;;;21.25;8.30;;;;;;;9.26;63.44;102696.88;5134295;27;20040;-63
2022/11/26 05:10:54;;;;;;;20.00;7.38;;;;;;;9.26;63.70;102699.53;5141477;27;20051;-63
2022/11/26 05:13:21;;;;;;;18.38;6.80;;;;;;;9.27;63.88;102705.75;5144573;27;20070;-63
2022/11/26 05:15:49;;;;;;;18.38;7.07;;;;;;;9.26;64.15;102702.22;5137949;27;20146;-64
2022/11/26 05:18:19;;;;;;;18.05;7.43;;;;;;;9.24;63.91;102714.97;5142707;27;20134;-63
2022/11/26 05:20:46;;;;;;;22.42;7.72;;;;;;;9.23;63.79;102696.38;5143805;27;20475;-64
2022/11/26 05:23:14;;;;;;;19.80;8.48;;;;;;;9.24;63.82;102706.09;5138197;27;20666;-63
2022/11/26 05:25:42;;;;;;;19.33;8.10;;;;;;;9.23;63.65;102701.72;5145129;27;20138;-63
2022/11/26 05:28:10;;;;;;;15.73;8.13;;;;;;;9.21;64.24;102701.91;5144759;27;20144;-63
2022/11/26 05:30:37;;;;;;;17.83;6.97;;;;;;;9.24;63.43;102717.66;5135933;27;20053;-63
2022/11/26 05:33:05;;;;;;;18.40;7.07;;;;;;;9.22;64.40;102713.47;5143344;27;20067;-63
2022/11/26 05:35:34;;;;;;;16.33;6.63;;;;;;;9.21;63.64;102712.63;5144144;27;20057;-63
2022/11/26 05:38:02;;;;;;;16.60;6.85;;;;;;;9.20;64.14;102716.31;5143284;27;20047;-63
2022/11/26 05:40:29;;;;;;;15.98;6.55;;;;;;;9.17;63.54;102713.13;5138507;27;20043;-63
2022/11/26 05:42:57;;;;;;;17.02;6.93;;;;;;;9.18;63.45;102722.84;5144369;27;20123;-63
2022/11/26 05:45:25;;;;;;;17.63;6.63;;;;;;;9.16;63.75;102720.34;5143933;27;20043;-63
2022/11/26 05:47:53;;;;;;;14.15;6.85;;;;;;;9.14;63.78;102728.56;5142639;27;20043;-63
2022/11/26 05:50:20;;;;;;;18.70;8.65;;;;;;;9.14;63.82;102723.19;5143735;27;20050;-63
2022/11/26 05:52:49;;;;;;;14.50;7.10;;;;;;;9.13;64.19;102720.66;5142479;27;20388;-63
2022/11/26 05:55:18;;;;;;;20.98;6.90;;;;;;;9.10;64.29;102724.53;5133443;27;20050;-63
2022/11/26 05:57:45;;;;;;;15.05;6.30;;;;;;;9.05;63.64;102713.44;4772637;27;10000739;-63
2022/11/26 06:00:14;;;;;;;15.50;7.00;;;;;;;9.11;63.75;102726.19;5133579;27;20303;-63
2022/11/26 06:02:42;;;;;;;14.23;7.70;;;;;;;9.12;63.86;102729.72;5139593;27;20099;-63
2022/11/26 06:05:11;;;;;;;18.50;7.20;;;;;;;9.09;64.26;102735.41;5122478;27;20073;-63
2022/11/26 06:07:38;;;;;;;16.52;6.70;;;;;;;9.08;63.96;102736.41;5140472;27;20038;-64
2022/11/26 06:10:13;;;;;;;16.20;7.15;;;;;;;9.06;63.55;102744.63;5132848;27;20055;-63
2022/11/26 06:12:41;;;;;;;16.55;6.95;;;;;;;9.06;64.04;102750.00;5141832;27;20086;-61
2022/11/26 06:15:10;;;;;;;15.90;6.63;;;;;;;9.08;63.94;102745.31;5134549;27;20051;-64
2022/11/26 06:17:38;;;;;;;17.98;6.78;;;;;;;9.08;63.60;102745.31;5126561;27;20087;-63
2022/11/26 06:20:06;;;;;;;14.70;6.30;;;;;;;9.09;63.50;102748.81;5136452;27;20055;-64
2022/11/26 06:22:37;;;;;;;17.20;6.65;;;;;;;9.06;64.06;102749.16;5133288;27;20126;-63
2022/11/26 06:25:05;;;;;;;14.07;6.60;;;;;;;9.04;63.56;102738.59;5139176;27;20055;-63
2022/11/26 06:27:35;;;;;;;14.82;7.57;;;;;;;9.01;63.86;102746.97;5141514;27;20044;-63
2022/11/26 06:30:04;;;;;;;13.60;6.93;;;;;;;9.06;63.84;102750.00;5140940;27;20047;-63
2022/11/26 06:32:33;;;;;;;13.93;7.57;;;;;;;9.05;63.61;102755.53;5124681;27;20051;-64
2022/11/26 06:35:00;;;;;;;13.73;6.65;;;;;;;9.03;63.91;102760.22;5139499;27;20051;-62
2022/11/26 06:37:28;;;;;;;14.02;6.93;;;;;;;9.02;64.27;102754.00;5135232;27;20153;-63
2022/11/26 06:39:56;;;;;;;15.90;6.88;;;;;;;9.01;63.62;102755.00;5131506;28;20066;-63
2022/11/26 06:42:23;;;;;;;14.13;7.63;;;;;;;9.01;63.34;102757.69;5141001;28;20047;-63
2022/11/26 06:44:52;;;;;;;15.50;6.88;;;;;;;9.02;64.00;102764.75;5139423;28;20530;-63
2022/11/26 06:47:26;;;;;;;18.02;7.78;;;;;;;8.99;64.20;102767.75;5132775;28;20124;-63
2022/11/26 06:49:54;;;;;;;18.52;7.40;;;;;;;8.97;63.80;102759.03;5138258;28;20071;-65
2022/11/26 06:52:22;;;;;;;17.17;7.97;;;;;;;8.99;64.02;102769.59;5139236;28;20057;-63
2022/11/26 06:54:49;;;;;;;17.98;7.22;;;;;;;8.97;63.79;102766.22;5134513;28;20712;-63
2022/11/26 06:57:17;;;;;;;14.68;6.80;;;;;;;8.97;64.10;102767.06;5134018;28;20039;-63
2022/11/26 06:59:45;;;;;;;15.57;6.95;;;;;;;8.95;63.45;102760.19;5140658;28;20047;-63
2022/11/26 07:02:14;;;;;;;16.48;7.53;;;;;;;8.94;64.34;102775.44;5137666;28;20110;-62
2022/11/26 07:04:42;;;;;;;18.83;7.40;;;;;;;8.97;63.77;102774.28;5138216;28;20130;-63
2022/11/26 07:07:09;;;;;;;15.15;7.75;;;;;;;8.96;63.58;102780.66;5139180;28;20054;-63
2022/11/26 07:09:38;;;;;;;14.73;6.43;;;;;;;8.92;63.78;102782.81;5126622;28;20051;-63
2022/11/26 07:12:06;;;;;;;15.77;6.90;;;;;;;8.92;63.61;102780.13;5137757;28;20051;-63
2022/11/26 07:14:34;;;;;;;12.98;5.95;;;;;;;8.90;64.24;102783.97;5128732;28;20047;-63
2022/11/26 07:17:02;;;;;;;16.38;7.88;;;;;;;8.91;64.25;102793.72;5135263;27;20118;-63
2022/11/26 07:19:31;;;;;;;16.98;6.60;;;;;;;8.91;64.03;102799.06;5137128;27;20057;-63
2022/11/26 07:21:59;;;;;;;16.15;7.18;;;;;;;8.89;63.90;102804.59;5134002;27;20562;-64
2022/11/26 07:24:27;;;;;;;16.25;8.57;;;;;;;8.90;63.90;102806.28;5136383;27;20054;-65
2022/11/26 07:26:55;;;;;;;13.82;6.40;;;;;;;8.88;63.97;102797.56;5144290;27;20055;-63
2022/11/26 07:29:22;;;;;;;15.68;6.28;;;;;;;8.88;63.49;102810.97;5141806;27;20078;-63
2022/11/26 07:31:50;;;;;;;20.40;7.03;;;;;;;8.78;63.92;102810.25;5129179;27;20138;-64
2022/11/26 07:34:18;;;;;;;13.95;7.38;;;;;;;8.61;63.47;102814.75;5140818;27;20491;-65
2022/11/26 07:36:47;;;;;;;16.02;7.25;;;;;;;8.54;64.51;102810.19;5139136;27;20440;-63
2022/11/26 07:39:16;;;;;;;23.40;6.75;;;;;;;8.59;64.57;102815.91;5140331;27;20073;-64
2022/11/26 07:41:43;;;;;;;15.95;6.05;;;;;;;8.62;64.81;102816.41;5143458;27;20157;-64
2022/11/26 07:44:13;;;;;;;19.33;7.35;;;;;;;8.67;64.26;102815.91;5144919;27;20107;-63
2022/11/26 07:46:41;;;;;;;15.32;6.82;;;;;;;8.70;64.08;102810.22;5135804;27;20039;-64
2022/11/26 07:49:08;;;;;;;17.73;6.32;;;;;;;8.79;64.43;102809.25;5142990;27;20091;-64
2022/11/26 07:51:38;;;;;;;15.48;6.15;;;;;;;8.95;63.53;102808.47;5130225;27;20060;-63
2022/11/26 07:54:08;;;;;;;11.90;5.15;;;;;;;9.12;63.54;102811.03;5134568;27;21177;-61
2022/11/26 07:56:36;;;;;;;15.10;5.65;;;;;;;9.27;62.91;102808.53;5140862;27;20055;-64
2022/11/26 07:59:04;;;;;;;15.27;5.72;;;;;;;9.42;62.40;102804.19;5136905;27;20077;-63
2022/11/26 08:01:32;;;;;;;13.07;6.68;;;;;;;9.58;61.67;102805.22;5142246;27;20051;-63
2022/11/26 08:04:04;;;;;;;16.38;7.55;;;;;;;9.74;61.16;102813.28;5142163;27;20115;-63
2022/11/26 08:06:33;;;;;;;12.23;5.53;;;;;;;9.88;60.67;102807.22;5134555;27;20044;-63
2022/11/26 08:09:02;;;;;;;12.52;5.22;;;;;;;9.94;60.61;102811.94;5140098;27;20051;-64
2022/11/26 08:11:33;;;;;;;14.23;5.55;;;;;;;9.90;60.85;102807.91;5143073;27;20154;-65
2022/11/26 08:14:03;;;;;;;13.27;5.40;;;;;;;9.82;60.98;102809.75;5143151;27;20938;-63
2022/11/26 08:16:31;;;;;;;13.10;5.93;;;;;;;9.72;61.25;102804.56;5140286;27;20130;-64
2022/11/26 08:19:00;;;;;;;11.57;5.50;;;;;;;9.60;61.83;102820.16;5142657;27;20086;-64
2022/11/26 08:21:28;;;;;;;14.18;5.38;;;;;;;9.51;61.86;102823.00;5137957;27;20539;-64
2022/11/26 08:23:56;;;;;;;13.43;5.07;;;;;;;9.45;62.53;102816.44;5131727;27;20112;-71
2022/11/26 08:26:25;;;;;;;15.02;5.22;;;;;;;9.39;62.23;102814.44;5139087;27;20047;-65
2022/11/26 08:29:05;;;;;;;16.65;5.25;;;;;;;9.35;62.97;102819.28;5136506;27;20051;-65
2022/11/26 08:31:33;;;;;;;9.60;4.97;;;;;;;9.31;62.53;102822.47;5129036;27;20062;-65
2022/11/26 08:34:02;;;;;;;15.13;5.03;;;;;;;9.25;63.59;102821.28;5140190;27;20061;-66
2022/11/26 08:36:31;;;;;;;12.35;5.43;;;;;;;9.23;63.36;102831.34;5136223;27;20107;-66
2022/11/26 08:39:00;;;;;;;12.07;4.85;;;;;;;9.21;63.62;102833.34;5133366;27;20051;-65
2022/11/26 08:41:28;;;;;;;16.08;5.57;;;;;;;9.14;63.21;102827.81;5140500;27;20143;-65
2022/11/26 08:43:55;;;;;;;17.10;5.72;;;;;;;9.12;64.06;102834.34;5143665;27;20150;-64
2022/11/26 08:46:41;;;;;;;10.32;4.43;;;;;;;9.09;63.94;102835.50;5138156;27;20076;-63
2022/11/26 08:49:12;;;;;;;13.35;4.20;;;;;;;9.11;64.21;102833.50;5139643;27;20053;-64
2022/11/26 08:51:39;;;;;;;10.68;4.93;;;;;;;9.09;64.48;102830.13;5141391;27;20035;-64
2022/11/26 08:54:07;;;;;;;24.67;5.15;;;;;;;9.07;63.84;102832.13;5139708;27;20074;-63
2022/11/26 08:56:35;;;;;;;10.70;4.05;;;;;;;9.07;64.66;102826.78;5142909;27;20077;-63
2022/11/26 08:59:03;;;;;;;10.07;4.30;;;;;;;9.08;64.25;102828.44;5142749;27;20063;-63
2022/11/26 09:01:33;;;;;;;14.02;4.28;;;;;;;9.08;64.24;102827.63;5141282;27;20131;-64
2022/11/26 09:04:03;;;;;;;12.18;4.63;;;;;;;9.06;64.76;102837.66;5138340;27;20055;-64
2022/11/26 09:06:33;;;;;;;16.55;4.82;;;;;;;9.06;64.20;102835.81;5138275;27;20054;-64
2022/11/26 09:09:13;;;;;;;19.95;6.05;;;;;;;8.95;66.02;102829.91;5140466;27;20519;-64
2022/11/26 09:11:45;;;;;;;18.90;5.28;;;;;;;8.91;66.93;102836.59;5141237;27;20035;-62
2022/11/26 09:14:14;;;;;;;18.10;5.90;;;;;;;8.93;66.56;102846.16;5130497;27;20134;-63
2022/11/26 09:16:41;;;;;;;10.27;4.93;;;;;;;8.99;66.54;102856.25;5135183;27;20047;-63
2022/11/26 09:19:13;;;;;;;16.95;5.07;;;;;;;9.02;65.47;102855.94;5141065;27;20069;-68
2022/11/26 09:21:41;;;;;;;11.93;4.63;;;;;;;9.06;65.67;102851.91;5139003;27;20079;-67
2022/11/26 09:24:09;;;;;;;16.67;4.97;;;;;;;9.07;65.62;102850.91;5140785;27;20047;-68
2022/11/26 09:26:37;;;;;;;16.40;4.93;;;;;;;9.10;66.00;102855.13;5134034;27;20048;-66
2022/11/26 09:29:05;;;;;;;17.50;4.68;;;;;;;9.11;65.66;102849.59;5137079;27;20054;-67
2022/11/26 09:31:33;;;;;;;13.63;4.63;;;;;;;9.12;65.96;102858.47;5136858;27;20043;-68
2022/11/26 09:34:02;;;;;;;15.05;4.93;;;;;;;9.08;66.34;102852.59;5142307;27;20047;-66
2022/11/26 09:36:31;;;;;;;11.32;4.97;;;;;;;9.08;65.58;102860.63;5139445;27;20039;-67
2022/11/26 09:38:59;;;;;;;12.43;3.72;;;;;;;9.12;66.01;102867.34;5137480;27;20043;-65
2022/11/26 09:41:40;;;;;;;10.52;4.35;;;;;;;9.12;65.66;102878.09;5141749;27;20051;-67
2022/11/26 09:44:21;;;;;;;11.80;4.82;;;;;;;9.14;65.82;102877.94;5134824;27;20051;-65
2022/11/26 09:46:59;;;;;;;13.25;4.22;;;;;;;9.13;66.07;102885.13;5124366;28;20051;-66
2022/11/26 09:49:56;;;;;;;15.93;4.25;;;;;;;9.16;65.97;102872.41;5131644;27;20043;-66
2022/11/26 09:52:30;;;;;;;9.13;4.53;;;;;;;9.16;66.24;102862.50;5142669;27;20115;-66
2022/11/26 09:55:05;;;;;;;15.05;5.40;;;;;;;9.19;65.57;102866.72;5140451;27;20142;-67
2022/11/26 09:57:39;;;;;;;9.60;4.13;;;;;;;9.18;65.70;102860.50;5133403;27;20039;-66
2022/11/26 10:00:21;;;;;;;10.88;3.90;;;;;;;9.20;65.58;102861.19;5142482;27;20126;-66
2022/11/26 10:02:51;;;;;;;11.60;4.10;;;;;;;9.19;66.18;102856.81;5144263;27;20043;-67
2022/11/26 10:05:20;;;;;;;11.95;3.65;;;;;;;9.21;65.64;102860.19;5142770;27;20496;-67
2022/11/26 10:08:02;;;;;;;14.60;5.90;;;;;;;9.22;65.95;102861.84;5142894;27;20054;-66
2022/11/26 10:10:38;;;;;;;17.80;4.53;;;;;;;9.23;66.38;102865.38;5141890;27;20111;-66
2022/11/26 10:13:20;;;;;;;14.57;4.50;;;;;;;9.23;66.20;102866.22;5143368;27;20077;-67
2022/11/26 10:15:59;;;;;;;9.52;3.67;;;;;;;9.25;65.90;102876.78;5143430;27;20062;-66
2022/11/26 10:18:37;;;;;;;12.90;3.53;;;;;;;9.24;66.04;102875.94;5139439;27;20090;-66
2022/11/26 10:21:15;;;;;;;12.70;3.85;;;;;;;9.26;66.29;102876.63;5141702;27;20684;-66
2022/11/26 10:23:59;;;;;;;11.30;3.80;;;;;;;9.26;66.48;102865.06;5138035;27;20051;-66
2022/11/26 10:26:30;;;;;;;13.43;4.28;;;;;;;9.28;65.87;102871.09;5142934;27;20058;-66
2022/11/26 10:29:12;;;;;;;15.25;4.10;;;;;;;9.29;66.41;102862.03;5140714;27;20053;-68
2022/11/26 10:31:43;;;;;;;13.57;3.50;;;;;;;9.31;66.46;102860.88;5132610;27;20214;-65
2022/11/26 10:34:16;;;;;;;11.45;3.80;;;;;;;9.32;66.11;102861.72;5143402;27;20043;-65
2022/11/26 10:36:46;;;;;;;9.13;3.45;;;;;;;9.29;66.50;102856.69;5143334;27;20119;-64
2022/11/26 10:39:17;;;;;;;9.75;3.97;;;;;;;9.35;67.07;102861.38;5141362;27;20500;-64
2022/11/26 10:41:46;;;;;;;11.70;3.67;;;;;;;9.36;66.51;102846.97;5137766;28;20052;-65
2022/11/26 10:44:35;;;;;;;12.48;3.53;;;;;;;9.39;66.49;102857.38;5143511;28;20057;-65
2022/11/26 10:47:22;;;;;;;12.38;3.85;;;;;;;9.44;66.72;102846.97;5141612;28;20134;-64
2022/11/26 10:49:51;;;;;;;11.13;4.13;;;;;;;9.45;66.75;102843.28;5143284;28;20043;-64
2022/11/26 10:52:23;;;;;;;13.93;4.35;;;;;;;9.46;66.73;102832.38;5136058;27;20061;-65
2022/11/26 10:55:10;;;;;;;12.27;3.80;;;;;;;9.43;66.35;102837.25;5139726;27;20142;-65
2022/11/26 10:57:45;;;;;;;11.50;3.50;;;;;;;9.45;66.57;102838.75;5140710;27;20049;-65
2022/11/26 11:00:29;;;;;;;9.48;3.85;;;;;;;9.46;66.99;102840.44;5138149;27;20067;-64
2022/11/26 11:02:56;;;;;;;8.05;3.10;;;;;;;9.49;67.00;102833.91;5138966;27;20047;-64
2022/11/26 11:05:24;;;;;;;11.02;3.72;;;;;;;9.51;66.43;102834.56;5146164;27;20085;-65
2022/11/26 11:07:53;;;;;;;9.43;3.30;;;;;;;9.51;66.92;102833.75;5136919;27;20043;-65
2022/11/26 11:10:25;;;;;;;11.77;4.50;;;;;;;9.53;66.50;102832.56;5147220;27;20039;-64
2022/11/26 11:13:03;;;;;;;11.75;3.45;;;;;;;9.53;67.10;102829.88;5143316;27;20055;-65
2022/11/26 11:15:34;;;;;;;12.82;3.85;;;;;;;9.55;67.03;102832.41;5132817;27;20415;-65
2022/11/26 11:18:05;;;;;;;14.45;4.07;;;;;;;9.55;67.35;102833.25;5140847;27;20492;-65
2022/11/26 11:20:36;;;;;;;12.18;4.28;;;;;;;9.58;66.98;102840.13;5140195;27;21080;-65
2022/11/26 11:23:19;;;;;;;9.75;3.58;;;;;;;9.57;67.38;102838.44;5133790;27;20051;-63
2022/11/26 11:25:58;;;;;;;10.23;3.55;;;;;;;9.58;67.35;102835.59;5139305;27;20042;-64
2022/11/26 11:28:28;;;;;;;8.70;3.67;;;;;;;9.61;67.21;102831.72;5142153;27;20043;-65
2022/11/26 11:31:00;;;;;;;11.68;4.20;;;;;;;9.63;67.18;102827.88;5136250;27;20039;-66
2022/11/26 11:33:29;;;;;;;11.10;3.30;;;;;;;9.64;67.42;102834.91;5138192;27;20485;-63
2022/11/26 11:35:59;;;;;;;11.93;3.45;;;;;;;9.68;67.38;102830.06;5135714;27;20134;-66
2022/11/26 11:38:29;;;;;;;10.38;3.58;;;;;;;9.68;67.76;102833.59;5139245;27;20053;-67
2022/11/26 11:41:02;;;;;;;11.27;3.80;;;;;;;9.67;67.87;102834.59;5142270;27;20047;-63